Time;durP1;ratioP1;P1;durP2;ratioP2;P2;SDS_P1;SDS_P2;PMS_P1;PMS_P2;Temp;Humidity;BMP_temperature;BMP_pressure;BME280_temperature;BME280_humidity;BME280_pressure;Samples;Min_cycle;Max_cycle;Signal;HPM_P1;HPM_P2
2022/09/10 00:00:39;;;;;;;38.55;26.80;;;15.10;99.90;;;;;;5053018;28;20033;-74
2022/09/10 00:03:05;;;;;;;45.35;27.75;;;15.10;99.90;;;;;;5052932;28;20055;-74
2022/09/10 00:05:41;;;;;;;39.70;27.02;;;15.10;99.90;;;;;;5052818;27;20033;-82
2022/09/10 00:08:08;;;;;;;38.80;25.08;;;15.10;99.90;;;;;;5051761;28;20083;-82
2022/09/10 00:10:41;;;;;;;46.28;29.00;;;15.10;99.90;;;;;;5051417;28;20463;-82
2022/09/10 00:13:08;;;;;;;41.55;27.98;;;15.10;99.90;;;;;;5051339;28;20509;-74
2022/09/10 00:15:53;;;;;;;48.45;29.50;;;15.00;99.90;;;;;;5052712;28;20024;-77
2022/09/10 00:18:21;;;;;;;48.85;30.98;;;15.10;99.90;;;;;;5052738;28;20013;-74
2022/09/10 00:20:53;;;;;;;55.65;31.00;;;15.00;99.90;;;;;;5052435;28;20398;-75
2022/09/10 00:23:24;;;;;;;50.00;32.50;;;15.00;99.90;;;;;;5052624;28;20118;-74
2022/09/10 00:25:52;;;;;;;52.75;30.98;;;14.90;99.90;;;;;;5052564;28;20103;-74
2022/09/10 00:28:18;;;;;;;54.95;32.22;;;15.00;99.90;;;;;;5052531;28;20453;-82
2022/09/10 00:30:46;;;;;;;52.25;31.02;;;15.00;99.90;;;;;;5052580;28;20025;-78
2022/09/10 00:33:13;;;;;;;57.00;32.03;;;15.00;99.90;;;;;;5051237;28;20021;-74
2022/09/10 00:35:39;;;;;;;51.63;31.77;;;15.00;99.90;;;;;;5051099;28;20386;-74
2022/09/10 00:38:05;;;;;;;52.45;32.85;;;15.10;99.90;;;;;;5047743;28;20023;-82
2022/09/10 00:40:32;;;;;;;54.90;34.05;;;15.10;99.90;;;;;;5031101;28;20037;-74
2022/09/10 00:42:58;;;;;;;56.28;33.40;;;15.10;99.90;;;;;;5031155;28;20026;-82
2022/09/10 00:45:26;;;;;;;52.55;30.88;;;15.00;99.90;;;;;;5032447;28;20074;-75
2022/09/10 00:47:54;;;;;;;61.70;34.80;;;15.10;99.90;;;;;;5032340;28;20025;-74
2022/09/10 00:50:24;;;;;;;54.22;33.50;;;15.00;99.90;;;;;;5035273;28;20450;-83
2022/09/10 00:52:55;;;;;;;59.03;33.80;;;15.00;99.90;;;;;;5051277;28;20021;-74
2022/09/10 00:55:21;;;;;;;58.40;34.35;;;15.00;99.90;;;;;;5052008;28;20100;-74
2022/09/10 00:57:50;;;;;;;64.38;35.42;;;15.00;99.90;;;;;;5050886;28;20077;-74
2022/09/10 01:00:16;;;;;;;62.60;37.20;;;14.90;99.90;;;;;;5051866;28;20089;-83
2022/09/10 01:02:42;;;;;;;64.70;36.35;;;14.90;99.90;;;;;;5051984;28;20025;-74
2022/09/10 01:05:09;;;;;;;63.88;35.78;;;14.90;99.90;;;;;;5051809;28;20057;-83
2022/09/10 01:07:35;;;;;;;69.55;38.58;;;14.90;99.90;;;;;;5050687;28;20021;-74
2022/09/10 01:10:06;;;;;;;63.28;36.53;;;14.90;99.90;;;;;;5051728;28;20025;-83
2022/09/10 01:12:54;;;;;;;62.92;38.03;;;14.90;99.90;;;;;;5051996;28;20066;-83
2022/09/10 01:15:41;;;;;;;69.90;37.38;;;15.00;99.90;;;;;;5051658;28;20021;-82
2022/09/10 01:18:37;;;;;;;72.25;38.00;;;15.00;99.90;;;;;;5050465;28;20033;-83
2022/09/10 01:21:25;;;;;;;69.78;39.15;;;15.00;99.90;;;;;;5051631;28;20029;-74
2022/09/10 01:24:03;;;;;;;67.78;39.33;;;14.90;99.90;;;;;;5050367;28;20496;-83
2022/09/10 01:27:19;;;;;;;62.22;37.58;;;14.90;99.90;;;;;;5051576;28;20380;-74
2022/09/10 01:30:13;;;;;;;66.18;39.03;;;15.00;99.90;;;;;;5068330;28;20029;-83
2022/09/10 01:33:15;;;;;;;68.65;38.80;;;15.00;99.90;;;;;;5050676;28;20045;-83
2022/09/10 01:35:50;;;;;;;68.43;39.85;;;15.10;99.90;;;;;;5066890;28;20025;-77
2022/09/10 01:38:30;;;;;;;68.70;39.60;;;15.00;99.90;;;;;;5051453;28;20096;-83
2022/09/10 01:40:57;;;;;;;63.70;35.53;;;15.00;99.90;;;;;;5051232;28;20056;-74
2022/09/10 01:43:23;;;;;;;64.80;38.08;;;15.10;99.90;;;;;;5050622;28;20032;-83
2022/09/10 01:45:53;;;;;;;67.20;38.25;;;15.10;99.90;;;;;;5050031;28;20112;-75
2022/09/10 01:48:38;;;;;;;70.18;42.00;;;15.10;99.90;;;;;;5049956;28;20530;-83
2022/09/10 01:51:25;;;;;;;74.97;40.22;;;15.10;99.90;;;;;;5039532;28;20026;-82
2022/09/10 01:53:50;;;;;;;66.93;38.20;;;15.10;99.90;;;;;;5031525;28;20018;-74
2022/09/10 01:56:34;;;;;;;67.80;38.92;;;15.10;99.90;;;;;;5031230;28;20033;-84
2022/09/10 01:59:10;;;;;;;66.65;37.72;;;15.10;99.90;;;;;;5029754;28;20045;-83
2022/09/10 02:01:44;;;;;;;72.18;39.97;;;15.10;99.90;;;;;;5031276;28;20025;-83
2022/09/10 02:04:15;;;;;;;68.22;40.30;;;15.10;99.90;;;;;;5029812;28;20014;-74
2022/09/10 02:06:46;;;;;;;69.78;39.80;;;15.10;99.90;;;;;;5029758;28;20021;-83
2022/09/10 02:09:15;;;;;;;69.53;38.00;;;15.10;99.90;;;;;;5031146;28;20022;-83
2022/09/10 02:11:53;;;;;;;75.00;39.25;;;15.10;99.90;;;;;;5029891;28;20028;-83
2022/09/10 02:14:20;;;;;;;62.75;37.25;;;15.10;99.90;;;;;;5031100;28;20026;-83
2022/09/10 02:16:57;;;;;;;61.58;36.30;;;15.20;99.90;;;;;;5031039;28;20033;-82
2022/09/10 02:19:23;;;;;;;64.50;38.13;;;15.20;99.90;;;;;;5029697;28;20653;-82
2022/09/10 02:21:50;;;;;;;64.95;34.50;;;15.20;99.90;;;;;;5030930;28;20105;-75
2022/09/10 02:24:16;;;;;;;64.07;36.53;;;15.20;99.90;;;;;;5030827;28;20113;-74
2022/09/10 02:26:43;;;;;;;66.40;37.25;;;15.20;99.90;;;;;;5030858;28;20092;-81
2022/09/10 02:29:10;;;;;;;72.60;38.70;;;15.10;99.90;;;;;;5030959;28;20356;-82
2022/09/10 02:31:37;;;;;;;71.43;41.65;;;15.20;99.90;;;;;;5029545;28;20029;-82
2022/09/10 02:34:03;;;;;;;73.20;38.97;;;15.20;99.90;;;;;;5029655;28;20044;-77
2022/09/10 02:36:30;;;;;;;74.93;40.10;;;15.20;99.90;;;;;;5030787;28;20466;-82
2022/09/10 02:38:57;;;;;;;67.75;37.80;;;15.20;99.90;;;;;;5042415;28;20036;-74
2022/09/10 02:41:24;;;;;;;59.30;34.45;;;15.20;99.90;;;;;;5049258;28;20025;-82
2022/09/10 02:43:54;;;;;;;67.57;38.25;;;15.20;99.90;;;;;;5050526;28;20033;-82
2022/09/10 02:46:20;;;;;;;68.07;38.17;;;15.20;99.90;;;;;;5049052;28;20023;-82
2022/09/10 02:48:46;;;;;;;70.85;40.20;;;15.20;99.90;;;;;;5050479;28;20033;-82
2022/09/10 02:51:12;;;;;;;81.88;43.22;;;15.20;99.90;;;;;;5039444;28;20029;-82
2022/09/10 02:53:38;;;;;;;76.18;39.78;;;15.20;99.90;;;;;;5029124;28;20036;-82
2022/09/10 02:56:04;;;;;;;70.53;37.63;;;15.20;99.90;;;;;;5029234;28;20028;-74
2022/09/10 02:58:30;;;;;;;70.25;37.90;;;15.20;99.90;;;;;;5028954;28;20042;-75
2022/09/10 03:01:05;;;;;;;68.95;37.25;;;15.20;99.90;;;;;;5028745;28;20059;-74
2022/09/10 03:03:32;;;;;;;63.67;38.33;;;15.10;99.90;;;;;;5029075;28;20067;-83
2022/09/10 03:05:57;;;;;;;66.05;35.75;;;15.10;99.90;;;;;;5030453;28;20505;-75
2022/09/10 03:08:23;;;;;;;61.05;36.15;;;15.10;99.90;;;;;;5028742;28;20057;-82
2022/09/10 03:10:48;;;;;;;63.50;32.97;;;15.10;99.90;;;;;;5029027;28;20029;-82
2022/09/10 03:13:14;;;;;;;58.65;32.92;;;15.10;99.90;;;;;;5030202;28;20478;-78
2022/09/10 03:15:42;;;;;;;57.65;33.08;;;15.10;99.90;;;;;;5029229;28;20490;-79
2022/09/10 03:18:08;;;;;;;57.05;33.60;;;15.10;99.90;;;;;;5029870;28;20381;-83
2022/09/10 03:20:34;;;;;;;52.72;32.45;;;15.10;99.90;;;;;;5030142;28;20033;-83
2022/09/10 03:22:59;;;;;;;52.92;33.10;;;15.00;99.90;;;;;;5030042;28;20467;-82
2022/09/10 03:25:25;;;;;;;49.88;32.22;;;15.00;99.90;;;;;;5030068;28;20101;-74
2022/09/10 03:27:51;;;;;;;52.00;31.95;;;15.00;99.90;;;;;;5030075;28;20017;-74
2022/09/10 03:30:17;;;;;;;51.95;32.58;;;15.00;99.90;;;;;;5030040;28;20025;-74
2022/09/10 03:32:43;;;;;;;41.63;27.80;;;15.00;99.90;;;;;;5029924;28;20024;-81
2022/09/10 03:35:09;;;;;;;42.13;27.52;;;14.90;99.90;;;;;;5029992;28;20049;-82
2022/09/10 03:37:34;;;;;;;39.08;26.73;;;14.90;99.90;;;;;;5030668;28;20021;-82
2022/09/10 03:40:00;;;;;;;31.40;23.02;;;14.90;99.90;;;;;;5048375;28;20081;-74
2022/09/10 03:42:26;;;;;;;29.83;20.83;;;14.90;99.90;;;;;;5048389;28;20051;-75
2022/09/10 03:44:51;;;;;;;27.83;21.25;;;14.90;99.90;;;;;;5048447;28;20103;-83
2022/09/10 03:47:17;;;;;;;27.65;20.55;;;14.80;99.90;;;;;;5049638;28;20025;-82
2022/09/10 03:49:42;;;;;;;25.40;18.70;;;14.90;99.90;;;;;;5048472;28;20036;-74
2022/09/10 03:52:11;;;;;;;23.35;18.42;;;14.80;99.90;;;;;;5030549;28;20033;-82
2022/09/10 03:54:37;;;;;;;25.13;18.15;;;14.80;99.90;;;;;;5028416;28;20033;-83
2022/09/10 03:57:03;;;;;;;27.10;18.80;;;14.80;99.90;;;;;;5029618;28;20100;-82
2022/09/10 03:59:29;;;;;;;23.27;16.20;;;14.80;99.90;;;;;;5028124;28;20088;-83
2022/09/10 04:01:56;;;;;;;22.15;16.40;;;14.80;99.90;;;;;;5029923;28;20026;-81
2022/09/10 04:04:21;;;;;;;25.10;16.85;;;14.80;99.90;;;;;;5029525;28;20025;-82
2022/09/10 04:06:47;;;;;;;23.35;15.93;;;14.80;99.90;;;;;;5028274;28;20014;-74
2022/09/10 04:09:12;;;;;;;19.50;15.88;;;14.70;99.90;;;;;;5028159;28;20037;-82
2022/09/10 04:11:38;;;;;;;25.92;19.25;;;14.70;99.90;;;;;;5029656;28;20029;-75
2022/09/10 04:14:04;;;;;;;20.20;17.77;;;14.70;99.90;;;;;;5030606;28;20025;-74
2022/09/10 04:16:31;;;;;;;24.80;19.15;;;14.70;99.90;;;;;;5031633;28;20032;-82
2022/09/10 04:18:56;;;;;;;29.00;20.35;;;14.70;99.90;;;;;;5031306;28;20078;-82
2022/09/10 04:21:23;;;;;;;24.52;20.45;;;14.70;99.90;;;;;;5032766;28;20029;-82
2022/09/10 04:23:55;;;;;;;26.55;20.80;;;14.60;99.90;;;;;;5032696;28;20025;-82
2022/09/10 04:26:21;;;;;;;27.40;19.95;;;14.60;99.90;;;;;;5032899;28;20083;-74
2022/09/10 04:28:47;;;;;;;32.03;20.90;;;14.60;99.90;;;;;;5031305;28;20025;-82
2022/09/10 04:31:13;;;;;;;29.33;21.08;;;14.60;99.90;;;;;;5032662;28;20488;-74
2022/09/10 04:33:39;;;;;;;32.03;20.00;;;14.60;99.90;;;;;;5032609;28;20022;-82
2022/09/10 04:36:05;;;;;;;26.55;19.90;;;14.50;99.90;;;;;;5032756;28;20060;-75
2022/09/10 04:38:32;;;;;;;24.48;19.27;;;14.40;99.90;;;;;;5041341;28;20411;-84
2022/09/10 04:41:02;;;;;;;26.15;18.73;;;14.40;99.90;;;;;;5052315;28;20037;-75
2022/09/10 04:43:28;;;;;;;25.23;17.98;;;14.40;99.90;;;;;;5051021;28;20056;-84
2022/09/10 04:45:54;;;;;;;22.42;16.23;;;14.30;99.90;;;;;;5052269;28;20049;-75
2022/09/10 04:48:21;;;;;;;20.52;16.20;;;14.20;99.90;;;;;;5052265;28;20028;-74
2022/09/10 04:50:47;;;;;;;19.13;13.63;;;14.30;99.90;;;;;;5042755;28;20125;-83
2022/09/10 04:53:13;;;;;;;18.08;13.93;;;14.20;99.90;;;;;;5030965;28;20085;-83
2022/09/10 04:55:41;;;;;;;16.70;13.25;;;14.20;99.90;;;;;;5032079;28;20022;-74
2022/09/10 04:58:08;;;;;;;17.65;12.32;;;14.10;99.90;;;;;;5033970;28;20526;-74
2022/09/10 05:00:33;;;;;;;17.50;13.38;;;14.10;99.90;;;;;;5040635;28;20029;-83
2022/09/10 05:02:59;;;;;;;14.70;12.65;;;14.10;99.90;;;;;;5039993;28;20368;-82
2022/09/10 05:05:25;;;;;;;16.08;11.82;;;14.10;99.90;;;;;;5043166;28;20015;-82
2022/09/10 05:07:52;;;;;;;13.52;12.07;;;14.00;99.90;;;;;;5050526;28;20470;-74
2022/09/10 05:10:19;;;;;;;14.63;11.38;;;14.10;99.90;;;;;;5051631;28;20013;-74
2022/09/10 05:12:45;;;;;;;16.35;12.98;;;14.00;99.90;;;;;;5050526;28;20013;-74
2022/09/10 05:15:10;;;;;;;13.77;10.45;;;14.00;99.90;;;;;;5050228;28;20024;-83
2022/09/10 05:17:36;;;;;;;16.63;12.65;;;14.00;99.90;;;;;;5045397;28;20061;-75
2022/09/10 05:20:03;;;;;;;15.18;10.43;;;14.00;99.90;;;;;;5048306;28;20033;-84
2022/09/10 05:22:29;;;;;;;11.77;9.50;;;14.10;99.90;;;;;;5051622;28;20096;-84
2022/09/10 05:24:55;;;;;;;13.63;10.45;;;14.10;99.90;;;;;;5049981;28;20025;-84
2022/09/10 05:27:21;;;;;;;13.32;10.55;;;14.10;99.90;;;;;;5050261;28;20031;-74
2022/09/10 05:29:46;;;;;;;15.75;10.88;;;14.00;99.90;;;;;;5050286;28;20363;-84
2022/09/10 05:32:12;;;;;;;12.73;9.25;;;14.00;99.90;;;;;;5037077;28;20026;-85
2022/09/10 05:34:38;;;;;;;13.18;8.27;;;14.10;99.90;;;;;;5035383;28;20424;-84
2022/09/10 05:37:04;;;;;;;12.30;7.85;;;14.00;99.90;;;;;;5033521;28;20029;-83
2022/09/10 05:39:30;;;;;;;9.55;7.55;;;14.00;99.90;;;;;;5048744;28;20040;-75
2022/09/10 05:41:56;;;;;;;7.00;5.75;;;14.00;99.90;;;;;;5050151;28;20033;-83
2022/09/10 05:44:21;;;;;;;7.45;5.32;;;14.00;99.90;;;;;;5051320;28;20024;-76
2022/09/10 05:46:47;;;;;;;6.65;5.13;;;14.00;99.90;;;;;;5051398;28;20048;-82
2022/09/10 05:49:13;;;;;;;9.15;6.20;;;14.00;99.90;;;;;;5051344;28;20074;-74
2022/09/10 05:51:38;;;;;;;9.18;6.15;;;14.00;99.90;;;;;;5034453;28;20474;-82
2022/09/10 05:54:04;;;;;;;6.68;5.85;;;14.10;99.90;;;;;;5031231;28;20030;-74
2022/09/10 05:56:30;;;;;;;6.10;5.50;;;14.10;99.90;;;;;;5031357;28;20432;-84
2022/09/10 05:58:56;;;;;;;9.10;6.65;;;14.20;99.90;;;;;;5030829;28;20068;-84
2022/09/10 06:01:22;;;;;;;7.50;6.38;;;14.20;99.90;;;;;;5030089;28;20028;-74
2022/09/10 06:03:47;;;;;;;8.80;6.55;;;14.20;99.90;;;;;;5031236;28;20060;-75
2022/09/10 06:06:13;;;;;;;8.38;5.38;;;14.20;99.90;;;;;;5031213;28;20026;-75
2022/09/10 06:08:38;;;;;;;6.22;4.97;;;14.20;99.90;;;;;;5031041;28;20064;-84
2022/09/10 06:11:05;;;;;;;5.85;5.28;;;14.20;99.90;;;;;;5031190;28;20026;-83
2022/09/10 06:13:32;;;;;;;7.35;5.57;;;14.20;99.90;;;;;;5029723;28;20065;-83
2022/09/10 06:15:59;;;;;;;5.07;4.43;;;14.20;99.90;;;;;;5031169;28;20521;-83
2022/09/10 06:18:25;;;;;;;5.18;4.68;;;14.20;99.90;;;;;;5031001;28;20078;-85
2022/09/10 06:21:01;;;;;;;6.65;5.40;;;14.20;99.90;;;;;;5030804;28;20439;-83
2022/09/10 06:23:27;;;;;;;7.38;5.35;;;14.30;99.90;;;;;;5029395;28;20029;-85
2022/09/10 06:26:08;;;;;;;5.18;4.55;;;14.30;99.90;;;;;;5030058;28;20394;-83
2022/09/10 06:28:34;;;;;;;5.07;4.57;;;14.40;99.90;;;;;;5033486;28;20474;-85
2022/09/10 06:31:03;;;;;;;5.10;4.60;;;14.40;99.90;;;;;;5049219;28;20024;-84
2022/09/10 06:33:29;;;;;;;6.07;4.78;;;14.40;99.90;;;;;;5049318;28;20029;-85
2022/09/10 06:35:56;;;;;;;5.70;5.07;;;14.40;99.90;;;;;;5049144;28;20488;-82
2022/09/10 06:38:25;;;;;;;6.80;4.85;;;14.50;99.90;;;;;;5040636;28;20066;-77
2022/09/10 06:40:58;;;;;;;6.65;5.25;;;14.50;99.90;;;;;;5029105;28;20049;-77
2022/09/10 06:43:27;;;;;;;6.50;4.32;;;14.40;99.90;;;;;;5028394;28;20026;-85
2022/09/10 06:45:54;;;;;;;8.27;4.95;;;14.40;99.90;;;;;;5030163;28;20036;-75
2022/09/10 06:48:20;;;;;;;5.60;4.70;;;14.40;99.90;;;;;;5028847;28;20013;-83
2022/09/10 06:50:53;;;;;;;5.75;4.70;;;14.40;99.90;;;;;;5036763;28;20068;-76
2022/09/10 06:53:22;;;;;;;6.22;5.57;;;14.40;99.90;;;;;;5047858;28;20013;-75
2022/09/10 06:55:49;;;;;;;6.03;5.10;;;14.40;99.90;;;;;;5048324;28;20462;-83
2022/09/10 06:58:16;;;;;;;5.20;4.70;;;14.30;99.90;;;;;;5047569;28;20471;-82
2022/09/10 07:00:42;;;;;;;7.35;4.90;;;14.30;99.90;;;;;;5046447;28;20040;-83
2022/09/10 07:03:08;;;;;;;4.95;4.43;;;14.30;99.90;;;;;;5047355;28;20108;-75
2022/09/10 07:05:34;;;;;;;5.72;4.80;;;14.30;99.90;;;;;;5048884;28;20438;-80
2022/09/10 07:08:00;;;;;;;4.97;4.47;;;14.30;99.90;;;;;;5049248;28;20017;-76
2022/09/10 07:10:27;;;;;;;5.75;4.93;;;14.30;99.90;;;;;;5047835;28;20033;-75
2022/09/10 07:12:53;;;;;;;6.00;4.68;;;14.30;99.90;;;;;;5048847;28;20104;-75
2022/09/10 07:15:19;;;;;;;6.75;4.20;;;14.30;99.90;;;;;;5048912;28;20029;-83
2022/09/10 07:17:44;;;;;;;5.03;4.03;;;14.30;99.90;;;;;;5049079;28;20032;-82
2022/09/10 07:20:10;;;;;;;5.45;4.88;;;14.40;99.90;;;;;;5050256;28;20043;-75
2022/09/10 07:22:36;;;;;;;8.60;5.50;;;14.50;99.90;;;;;;5050384;28;20064;-82
2022/09/10 07:25:02;;;;;;;6.85;6.05;;;14.40;99.90;;;;;;5050110;28;20029;-83
2022/09/10 07:27:28;;;;;;;8.63;6.20;;;14.50;99.90;;;;;;5048890;28;20052;-75
2022/09/10 07:29:53;;;;;;;7.45;5.93;;;14.50;99.90;;;;;;5048804;28;20044;-83
2022/09/10 07:32:19;;;;;;;8.23;6.28;;;14.50;99.90;;;;;;5050059;28;20025;-83
2022/09/10 07:34:46;;;;;;;8.23;5.38;;;14.60;99.90;;;;;;5048840;28;20032;-76
2022/09/10 07:37:14;;;;;;;6.90;6.20;;;14.60;99.90;;;;;;5049946;28;20028;-77
2022/09/10 07:39:40;;;;;;;9.52;7.50;;;14.70;99.90;;;;;;5048693;28;20047;-75
2022/09/10 07:42:06;;;;;;;7.60;6.43;;;14.80;99.90;;;;;;5048688;28;20433;-75
2022/09/10 07:44:31;;;;;;;9.15;6.43;;;14.80;99.90;;;;;;5049906;28;20029;-75
2022/09/10 07:46:57;;;;;;;9.10;7.40;;;14.80;99.90;;;;;;5049880;28;20096;-75
2022/09/10 07:49:22;;;;;;;9.20;7.00;;;14.80;99.90;;;;;;5051550;28;20140;-75
2022/09/10 07:51:52;;;;;;;10.43;7.18;;;14.90;99.90;;;;;;5034538;28;20025;-78
2022/09/10 07:54:18;;;;;;;8.45;7.13;;;14.90;99.90;;;;;;5032105;28;20070;-77
2022/09/10 07:56:44;;;;;;;9.48;7.28;;;14.90;99.90;;;;;;5032040;28;20028;-76
2022/09/10 07:59:10;;;;;;;9.73;7.60;;;14.90;99.90;;;;;;5033069;28;20049;-75
2022/09/10 08:01:36;;;;;;;9.02;6.53;;;15.00;99.90;;;;;;5033301;28;20499;-78
2022/09/10 08:04:02;;;;;;;7.63;6.15;;;15.00;99.90;;;;;;5033188;27;20021;-75
2022/09/10 08:06:28;;;;;;;8.68;6.85;;;15.00;99.90;;;;;;5031937;28;20025;-75
2022/09/10 08:08:54;;;;;;;6.75;5.63;;;15.00;99.90;;;;;;5031904;28;20209;-84
2022/09/10 08:11:20;;;;;;;6.97;6.18;;;15.00;99.90;;;;;;5033000;28;20022;-85
2022/09/10 08:13:49;;;;;;;6.78;5.93;;;15.10;99.90;;;;;;5031842;28;20141;-78
2022/09/10 08:16:20;;;;;;;7.68;5.68;;;15.10;99.90;;;;;;5031783;28;20013;-77
2022/09/10 08:18:47;;;;;;;6.35;4.88;;;15.10;99.90;;;;;;5031728;28;20499;-75
2022/09/10 08:21:14;;;;;;;13.20;10.77;;;15.10;99.90;;;;;;5031607;28;20034;-76
2022/09/10 08:23:40;;;;;;;5.75;5.25;;;15.20;99.90;;;;;;5033025;28;20021;-82
2022/09/10 08:26:06;;;;;;;6.97;5.38;;;15.20;99.90;;;;;;5032808;28;20124;-82
2022/09/10 08:28:33;;;;;;;8.00;4.53;;;15.20;99.90;;;;;;5032837;28;20026;-83
2022/09/10 08:31:01;;;;;;;5.82;4.85;;;15.20;99.90;;;;;;5031497;28;20053;-83
2022/09/10 08:33:28;;;;;;;5.15;4.63;;;15.20;99.90;;;;;;5032765;28;20032;-75
2022/09/10 08:35:56;;;;;;;5.07;4.50;;;15.20;99.90;;;;;;5032789;28;20032;-84
2022/09/10 08:38:24;;;;;;;4.05;3.70;;;15.20;99.90;;;;;;5040340;28;20025;-77
2022/09/10 08:40:50;;;;;;;5.28;4.75;;;15.20;99.90;;;;;;5052519;28;20040;-85
2022/09/10 08:43:17;;;;;;;7.72;7.13;;;15.20;99.90;;;;;;5051171;28;20569;-85
2022/09/10 08:45:48;;;;;;;4.38;4.07;;;15.20;99.90;;;;;;5051260;28;20533;-85
2022/09/10 08:48:19;;;;;;;6.07;5.57;;;15.20;99.90;;;;;;5051209;28;20069;-77
2022/09/10 08:51:03;;;;;;;5.00;4.60;;;15.30;99.90;;;;;;5043156;28;20498;-77
2022/09/10 08:53:35;;;;;;;3.58;3.28;;;15.30;99.90;;;;;;5031227;28;20069;-77
2022/09/10 08:56:07;;;;;;;6.68;6.07;;;15.20;99.90;;;;;;5031229;28;20077;-77
2022/09/10 08:58:49;;;;;;;10.80;9.65;;;15.30;99.90;;;;;;5031789;28;20033;-77
2022/09/10 09:01:39;;;;;;;7.75;7.15;;;15.30;99.90;;;;;;5032479;28;20033;-77
2022/09/10 09:04:30;;;;;;;3.85;3.53;;;15.40;99.90;;;;;;5031167;28;20053;-85
2022/09/10 09:07:02;;;;;;;4.20;3.65;;;15.50;99.90;;;;;;5030971;28;20033;-85
2022/09/10 09:09:28;;;;;;;;;;;15.60;99.90;;;;;;5031457;28;20021;-85
2022/09/10 09:12:31;;;;;;;3.10;2.88;;;15.60;99.90;;;;;;5031193;28;19905;-77
2022/09/10 09:14:56;;;;;;;3.13;2.90;;;15.70;99.90;;;;;;5032202;28;20025;-85
2022/09/10 09:17:32;;;;;;;3.00;2.70;;;15.70;99.90;;;;;;5032098;28;20021;-78
2022/09/10 09:20:11;;;;;;;3.67;3.38;;;15.70;99.90;;;;;;5030815;28;20406;-85
2022/09/10 09:23:04;;;;;;;3.47;2.72;;;15.80;99.90;;;;;;5030889;28;20387;-78
2022/09/10 09:25:35;;;;;;;4.93;3.42;;;15.90;99.90;;;;;;5032065;28;20022;-77
2022/09/10 09:28:03;;;;;;;3.38;3.10;;;15.90;99.90;;;;;;5030641;28;20033;-85
2022/09/10 09:30:48;;;;;;;3.80;3.45;;;16.00;99.90;;;;;;5030671;28;20022;-83
2022/09/10 09:33:17;;;;;;;3.58;2.90;;;16.10;99.90;;;;;;5031946;28;20017;-83
2022/09/10 09:35:49;;;;;;;3.17;2.85;;;16.30;99.90;;;;;;5031840;28;20029;-85
2022/09/10 09:38:17;;;;;;;2.95;2.65;;;16.40;99.90;;;;;;5038801;28;20048;-78
2022/09/10 09:40:56;;;;;;;2.78;2.58;;;16.40;99.90;;;;;;5050371;28;20037;-77
2022/09/10 09:43:41;;;;;;;2.67;2.42;;;16.50;99.90;;;;;;5051657;28;20025;-85
2022/09/10 09:46:14;;;;;;;3.03;2.83;;;16.60;99.90;;;;;;5050418;28;20051;-78
2022/09/10 09:48:40;;;;;;;3.67;2.38;;;16.60;99.90;;;;;;5050220;28;20032;-77
2022/09/10 09:51:12;;;;;;;3.42;2.60;;;16.70;99.90;;;;;;5037846;28;20090;-78
2022/09/10 09:53:38;;;;;;;2.67;2.47;;;16.80;99.90;;;;;;5031574;28;20030;-77
2022/09/10 09:56:11;;;;;;;4.45;3.20;;;16.90;99.90;;;;;;5031460;28;20017;-78
2022/09/10 09:58:39;;;;;;;3.15;2.28;;;17.00;99.90;;;;;;5031463;28;20117;-77
2022/09/10 10:01:08;;;;;;;3.47;2.15;;;17.10;99.90;;;;;;5030171;28;20064;-85
2022/09/10 10:03:57;;;;;;;3.10;2.90;;;17.20;99.90;;;;;;5031512;28;20053;-83
2022/09/10 10:06:31;;;;;;;2.88;2.33;;;17.30;99.90;;;;;;5031495;28;20029;-75
2022/09/10 10:08:59;;;;;;;3.05;2.83;;;17.10;99.90;;;;;;5031250;28;20049;-75
2022/09/10 10:11:46;;;;;;;3.65;3.10;;;17.10;99.90;;;;;;5030353;28;20030;-83
2022/09/10 10:14:19;;;;;;;2.60;2.15;;;17.10;99.90;;;;;;5031263;28;20102;-77
2022/09/10 10:16:47;;;;;;;;;;;17.00;99.90;;;;;;5031805;28;20067;-77
2022/09/10 10:19:32;;;;;;;3.30;3.00;;;17.00;99.90;;;;;;5031501;28;19916;-85
2022/09/10 10:22:13;;;;;;;3.67;3.22;;;16.90;99.90;;;;;;5031246;28;20491;-77
2022/09/10 10:24:41;;;;;;;4.53;4.07;;;17.00;99.90;;;;;;5029735;28;20033;-85
2022/09/10 10:27:17;;;;;;;4.22;3.88;;;17.10;99.90;;;;;;5029834;28;20032;-84
2022/09/10 10:29:55;;;;;;;4.85;3.65;;;17.20;99.90;;;;;;5029786;28;20021;-85
2022/09/10 10:32:50;;;;;;;5.18;3.40;;;17.40;99.90;;;;;;5031058;28;20088;-85
2022/09/10 10:35:28;;;;;;;3.67;3.38;;;17.40;99.90;;;;;;5029511;28;20174;-76
2022/09/10 10:38:24;;;;;;;3.80;3.50;;;17.20;99.90;;;;;;5036497;27;20029;-75
2022/09/10 10:41:03;;;;;;;3.95;3.55;;;17.20;99.90;;;;;;5049486;28;20041;-83
2022/09/10 10:43:46;;;;;;;4.43;4.03;;;17.20;99.90;;;;;;5049355;28;20438;-75
2022/09/10 10:46:20;;;;;;;4.03;3.60;;;17.30;99.90;;;;;;5050824;28;20021;-75
2022/09/10 10:49:04;;;;;;;4.32;3.53;;;17.40;99.90;;;;;;5049284;28;20014;-75
2022/09/10 10:52:07;;;;;;;5.97;3.70;;;17.50;99.90;;;;;;5033415;28;20030;-82
2022/09/10 10:54:55;;;;;;;4.40;4.03;;;17.60;99.90;;;;;;5030602;28;20029;-75
2022/09/10 10:57:39;;;;;;;4.10;3.75;;;17.70;99.90;;;;;;5029451;28;20029;-83
2022/09/10 11:00:11;;;;;;;4.20;3.90;;;17.60;99.90;;;;;;5029045;28;20054;-83
2022/09/10 11:03:14;;;;;;;4.60;4.18;;;17.60;99.90;;;;;;5030809;28;20053;-76
2022/09/10 11:05:51;;;;;;;3.67;3.38;;;17.80;99.90;;;;;;5030593;28;20029;-75
2022/09/10 11:08:41;;;;;;;5.25;4.20;;;17.80;99.90;;;;;;5030524;28;20021;-82
2022/09/10 11:11:30;;;;;;;4.57;3.95;;;17.90;99.90;;;;;;5030560;28;20116;-82
2022/09/10 11:14:20;;;;;;;5.28;4.30;;;18.00;99.90;;;;;;5030601;28;20525;-83
2022/09/10 11:17:01;;;;;;;5.60;4.68;;;18.20;99.90;;;;;;5030308;28;20036;-82
2022/09/10 11:19:56;;;;;;;8.05;4.97;;;18.60;99.90;;;;;;5028911;28;20030;-82
2022/09/10 11:22:33;;;;;;;5.72;3.97;;;18.70;99.90;;;;;;5030747;28;20021;-75
2022/09/10 11:25:08;;;;;;;5.95;4.72;;;18.70;99.90;;;;;;5033779;28;20501;-83
2022/09/10 11:27:49;;;;;;;4.57;3.88;;;18.90;99.90;;;;;;5032648;28;20384;-83
2022/09/10 11:30:16;;;;;;;4.95;4.00;;;19.10;99.90;;;;;;5032456;28;20022;-79
2022/09/10 11:32:47;;;;;;;4.25;3.75;;;19.10;99.90;;;;;;5032622;28;20390;-83
2022/09/10 11:35:33;;;;;;;4.43;4.00;;;19.10;99.90;;;;;;5032230;28;20064;-76
2022/09/10 11:38:11;;;;;;;8.32;5.57;;;18.90;99.90;;;;;;5039870;28;20017;-85
2022/09/10 11:41:12;;;;;;;6.15;4.78;;;18.70;99.90;;;;;;5051958;28;20040;-76
2022/09/10 11:43:48;;;;;;;4.10;3.80;;;18.30;99.90;;;;;;5053130;28;20039;-77
2022/09/10 11:46:33;;;;;;;4.05;3.75;;;18.20;99.90;;;;;;5053143;28;20025;-85
2022/09/10 11:49:09;;;;;;;5.00;3.22;;;18.20;99.90;;;;;;5051868;28;20036;-84
2022/09/10 11:51:36;;;;;;;3.50;2.95;;;18.10;99.90;;;;;;5034988;28;20377;-85
2022/09/10 11:54:08;;;;;;;3.75;2.50;;;17.80;99.90;;;;;;5033054;28;20022;-77
2022/09/10 11:56:51;;;;;;;3.47;2.90;;;17.90;99.90;;;;;;5032831;28;20130;-84
2022/09/10 11:59:54;;;;;;;4.22;3.58;;;18.20;99.90;;;;;;5045370;28;20124;-85
2022/09/10 12:02:36;;;;;;;2.47;2.28;;;18.50;99.90;;;;;;5042906;27;20072;-88
2022/09/10 12:05:14;;;;;;;3.80;2.28;;;18.70;99.90;;;;;;5050205;28;20093;-87
2022/09/10 12:08:04;;;;;;;3.05;2.78;;;18.80;99.90;;;;;;5044260;28;20542;-86
2022/09/10 12:10:48;;;;;;;3.85;2.33;;;19.00;99.90;;;;;;5050521;28;20112;-78
2022/09/10 12:13:14;;;;;;;3.17;2.80;;;19.30;99.90;;;;;;5051072;28;20021;-77
2022/09/10 12:15:49;;;;;;;2.60;2.40;;;19.10;99.90;;;;;;5050035;27;20025;-78
2022/09/10 12:18:20;;;;;;;4.22;2.45;;;18.90;99.90;;;;;;5050554;28;20021;-77
2022/09/10 12:20:53;;;;;;;2.45;2.25;;;18.80;99.90;;;;;;5049725;27;20065;-77
2022/09/10 12:23:41;;;;;;;2.80;2.13;;;18.70;99.90;;;;;;5050081;28;20017;-76
2022/09/10 12:26:12;;;;;;;2.00;1.90;;;18.50;99.90;;;;;;5050795;27;20064;-77
2022/09/10 12:28:40;;;;;;;2.72;2.40;;;18.40;99.90;;;;;;5051465;28;20028;-77
2022/09/10 12:31:10;;;;;;;2.53;1.90;;;18.30;99.90;;;;;;5049511;27;20021;-77
2022/09/10 12:33:44;;;;;;;2.05;1.92;;;18.30;99.90;;;;;;5048785;28;20029;-77
2022/09/10 12:36:25;;;;;;;3.35;2.28;;;18.30;99.90;;;;;;5039005;27;20060;-77
2022/09/10 12:39:22;;;;;;;3.15;2.17;;;18.30;99.90;;;;;;5051059;28;20386;-77
2022/09/10 12:41:48;;;;;;;1.90;1.80;;;18.30;99.90;;;;;;5050486;27;20176;-76
2022/09/10 12:44:33;;;;;;;2.38;2.10;;;18.30;99.90;;;;;;5051056;28;20025;-86
2022/09/10 12:47:14;;;;;;;2.28;1.90;;;18.30;99.90;;;;;;5049431;28;20050;-87
2022/09/10 12:49:52;;;;;;;2.60;2.38;;;18.30;99.90;;;;;;5048067;28;20035;-87
2022/09/10 12:52:35;;;;;;;2.25;2.15;;;18.40;99.90;;;;;;5048192;28;20029;-87
2022/09/10 12:55:27;;;;;;;2.08;1.98;;;18.60;99.90;;;;;;5049404;28;20466;-87
2022/09/10 12:58:05;;;;;;;2.30;2.10;;;18.70;99.90;;;;;;5050026;27;20029;-87
2022/09/10 13:00:53;;;;;;;3.33;3.03;;;19.10;99.90;;;;;;5049617;28;20507;-78